Allensville, OH

1:19 AM EST on December 22, 2014 (GMT -0500)
OHDOT 37-Vinton County Garage | Change Station
CLOSE
Current Station
Personal Weather Station
Location: McArthur, OH
Elevation: 759 ft
Nearby Weather Stations

Elev 759 ft 39.20 °N, 82.49 °W | Updated 46 minutes ago

Partly Cloudy
Partly Cloudy
24 °F
Feels Like 24 °F
N
0
Wind Variable Wind from North
Gusts 1.0 mph

Today
High -- | Low -- °F
--% Chance of Precip.
Yesterday
High -- | Low -- °F
Precip. -- in
7:46 AM 5:10 PM
New Moon, 0% visible
Pressure 30.12 in
Visibility 7.0 miles
Clouds Clear
Windchill 24 °F
Dew Point 23 °F
Humidity 93%
Rainfall -999.00 in
Snow Depth Not available.
UV 0 out of 12
Pollen .10 out of 12
Air Quality Not available.
Flu Activity Not available.
METAR KUNI 220555Z AUTO 00000KT 7SM CLR M04/M06 A3012 RMK AO2 T10411056 10000 21047

More Conditions Fewer Conditions

Pressure 30.12 in
Visibility 7.0 miles
Clouds Clear
Windchill 24 °F
Dew Point 23 °F
Humidity 93%
Rainfall -999.00 in
Snow Depth Not available.
UV 0 out of 12
Pollen .10 out of 12
Air Quality Not available.
Flu Activity Not available.
METAR KUNI 220555Z AUTO 00000KT 7SM CLR M04/M06 A3012 RMK AO2 T10411056 10000 21047

More Conditions Fewer Conditions

10-Day Weather Forecast

Almanac

Astronomy

Dec. 22, 2014 Rise Set
Actual Time
Civil Twilight
Nautical Twilight
Astronomical Twilight
Moon
Length of Visible Light
Length of Day
Tomorrow will be .
, % of the Moon is Illuminated

Today's Extremes

State Highs State Lows

Community

WunderPhotos

Upload Photos

1,779,553 photos uploaded!

WunderBlogs® & News

Nearby

Air Quality

  Air Quality AQ Index Pollutant
Not available.

Snow Depth

Station Depth Elevation

Earthquake Activity

City Distance Mag. Time & Date
Minimum magnitude displayed is 2.5.

Coastal Water Temperatures

Place Temperature

Nearby Weather Stations